Time,TemperatureF,DewpointF,PressureIn,WindDirection,WindDirectionDegrees,WindSpeedMPH,WindSpeedGustMPH,Humidity,HourlyPrecipIn,Conditions,Clouds,dailyrainin,SoftwareType,DateUTC
2013-08-14 00:01:00,63.7,60.8,29.69,North,0,0.0,0.0,90,0.00,,,0.00,WUHU216HW,2013-08-14 04:01:00,
2013-08-14 00:06:00,63.7,60.8,29.69,North,0,0.0,0.0,90,0.00,,,0.00,WUHU216HW,2013-08-14 04:06:00,
2013-08-14 00:11:00,63.9,61.0,29.68,North,0,0.0,0.0,90,0.00,,,0.00,WUHU216HW,2013-08-14 04:11:00,
2013-08-14 00:16:00,64.1,61.2,29.68,North,0,0.0,0.0,90,0.00,,,0.00,WUHU216HW,2013-08-14 04:16:00,
2013-08-14 00:21:00,64.1,61.2,29.68,North,0,0.0,0.0,90,0.00,,,0.00,WUHU216HW,2013-08-14 04:21:00,
2013-08-14 00:26:00,64.1,61.5,29.68,North,0,0.0,0.0,91,0.00,,,0.00,WUHU216HW,2013-08-14 04:26:00,
2013-08-14 00:31:00,64.6,62.0,29.68,North,0,0.0,0.0,91,0.00,,,0.00,WUHU216HW,2013-08-14 04:31:00,
2013-08-14 00:36:00,64.4,61.8,29.68,North,0,0.0,0.0,91,0.00,,,0.00,WUHU216HW,2013-08-14 04:36:00,
2013-08-14 00:41:00,64.3,61.7,29.68,North,0,0.0,0.0,91,0.00,,,0.00,WUHU216HW,2013-08-14 04:41:00,
2013-08-14 00:46:00,64.1,61.5,29.67,North,0,0.0,0.0,91,0.00,,,0.00,WUHU216HW,2013-08-14 04:46:00,
2013-08-14 00:51:00,63.9,61.3,29.67,North,0,0.0,0.0,91,0.00,,,0.00,WUHU216HW,2013-08-14 04:51:00,
2013-08-14 00:56:00,63.9,61.3,29.67,North,0,0.0,0.0,91,0.00,,,0.00,WUHU216HW,2013-08-14 04:56:00,
2013-08-14 01:01:00,63.9,61.3,29.67,North,0,0.0,0.0,91,0.00,,,0.00,WUHU216HW,2013-08-14 05:01:00,
2013-08-14 01:06:00,63.9,61.3,29.67,North,0,0.0,0.0,91,0.00,,,0.00,WUHU216HW,2013-08-14 05:06:00,
2013-08-14 01:11:00,63.9,61.3,29.67,North,0,0.0,0.0,91,0.00,,,0.00,WUHU216HW,2013-08-14 05:11:00,
2013-08-14 01:16:00,64.1,61.5,29.67,North,0,0.0,0.0,91,0.00,,,0.00,WUHU216HW,2013-08-14 05:16:00,
2013-08-14 01:21:00,63.9,61.3,29.67,North,0,0.0,0.0,91,0.00,,,0.00,WUHU216HW,2013-08-14 05:21:00,
2013-08-14 01:26:00,64.1,61.5,29.67,North,0,0.0,0.0,91,0.00,,,0.00,WUHU216HW,2013-08-14 05:26:00,
2013-08-14 01:31:00,64.1,61.5,29.68,North,0,0.0,0.0,91,0.00,,,0.00,WUHU216HW,2013-08-14 05:31:00,
2013-08-14 01:36:00,64.3,61.7,29.68,North,0,0.0,0.0,91,0.00,,,0.00,WUHU216HW,2013-08-14 05:36:00,
2013-08-14 01:41:00,64.1,61.5,29.68,North,0,0.0,0.0,91,0.00,,,0.00,WUHU216HW,2013-08-14 05:41:00,
2013-08-14 01:46:00,64.1,61.5,29.67,North,0,0.0,0.0,91,0.00,,,0.00,WUHU216HW,2013-08-14 05:46:00,
2013-08-14 01:51:00,64.1,61.5,29.67,North,0,0.0,0.0,91,0.00,,,0.00,WUHU216HW,2013-08-14 05:51:00,
2013-08-14 01:56:00,64.1,61.5,29.67,North,0,0.0,0.0,91,0.00,,,0.00,WUHU216HW,2013-08-14 05:56:00,
2013-08-14 02:01:00,63.9,61.3,29.67,North,0,0.0,0.0,91,0.00,,,0.00,WUHU216HW,2013-08-14 06:01:00,
2013-08-14 02:06:00,63.7,61.1,29.67,North,0,0.0,0.0,91,0.00,,,0.00,WUHU216HW,2013-08-14 06:06:00,
2013-08-14 02:11:00,63.5,60.9,29.67,North,0,0.0,0.0,91,0.00,,,0.00,WUHU216HW,2013-08-14 06:11:00,
2013-08-14 02:16:00,63.2,60.6,29.67,North,0,0.0,0.0,91,0.00,,,0.00,WUHU216HW,2013-08-14 06:16:00,
2013-08-14 02:21:00,62.8,60.2,29.66,North,0,0.0,0.0,91,0.00,,,0.00,WUHU216HW,2013-08-14 06:21:00,
2013-08-14 02:26:00,62.5,59.9,29.66,North,0,0.0,0.0,91,0.00,,,0.00,WUHU216HW,2013-08-14 06:26:00,
2013-08-14 02:31:00,62.3,59.7,29.66,North,0,0.0,0.0,91,0.00,,,0.00,WUHU216HW,2013-08-14 06:31:00,
2013-08-14 02:36:00,62.1,59.5,29.66,North,0,0.0,0.0,91,0.00,,,0.00,WUHU216HW,2013-08-14 06:36:00,
2013-08-14 02:41:00,62.1,59.5,29.66,North,0,0.0,0.0,91,0.00,,,0.00,WUHU216HW,2013-08-14 06:41:00,
2013-08-14 02:46:00,61.9,59.6,29.66,North,0,0.0,0.0,92,0.00,,,0.00,WUHU216HW,2013-08-14 06:46:00,
2013-08-14 02:51:00,61.9,59.6,29.66,North,0,0.0,0.0,92,0.00,,,0.00,WUHU216HW,2013-08-14 06:51:00,
2013-08-14 02:56:00,61.9,59.6,29.66,North,0,0.0,0.0,92,0.00,,,0.00,WUHU216HW,2013-08-14 06:56:00,
2013-08-14 03:01:00,61.6,59.2,29.66,North,0,0.0,0.0,92,0.00,,,0.00,WUHU216HW,2013-08-14 07:01:00,
2013-08-14 03:06:00,61.4,59.0,29.66,North,0,0.0,0.0,92,0.00,,,0.00,WUHU216HW,2013-08-14 07:06:00,
2013-08-14 03:11:00,61.4,59.0,29.66,North,0,0.0,0.0,92,0.00,,,0.00,WUHU216HW,2013-08-14 07:11:00,
2013-08-14 03:16:00,61.2,58.9,29.66,North,0,0.0,0.0,92,0.00,,,0.00,WUHU216HW,2013-08-14 07:16:00,
2013-08-14 03:21:00,61.0,58.7,29.66,North,0,0.0,0.0,92,0.00,,,0.00,WUHU216HW,2013-08-14 07:21:00,
2013-08-14 03:26:00,61.0,58.7,29.66,North,0,0.0,0.0,92,0.00,,,0.00,WUHU216HW,2013-08-14 07:26:00,
2013-08-14 03:31:00,60.8,58.5,29.66,North,0,0.0,0.0,92,0.00,,,0.00,WUHU216HW,2013-08-14 07:31:00,
2013-08-14 03:36:00,60.8,58.5,29.66,North,0,0.0,0.0,92,0.00,,,0.00,WUHU216HW,2013-08-14 07:36:00,
2013-08-14 03:41:00,60.8,58.5,29.66,North,0,0.0,0.0,92,0.00,,,0.00,WUHU216HW,2013-08-14 07:41:00,
2013-08-14 03:46:00,60.8,58.5,29.66,North,0,0.0,0.0,92,0.00,,,0.00,WUHU216HW,2013-08-14 07:46:00,
2013-08-14 03:51:00,60.8,58.5,29.66,North,0,0.0,0.0,92,0.00,,,0.00,WUHU216HW,2013-08-14 07:51:00,
2013-08-14 03:56:00,60.8,58.5,29.66,North,0,0.0,0.0,92,0.00,,,0.00,WUHU216HW,2013-08-14 07:56:00,
2013-08-14 04:01:00,60.8,58.5,29.65,North,0,0.0,0.0,92,0.00,,,0.00,WUHU216HW,2013-08-14 08:01:00,
2013-08-14 04:06:00,61.0,58.7,29.65,North,0,0.0,0.0,92,0.00,,,0.00,WUHU216HW,2013-08-14 08:06:00,
2013-08-14 04:11:00,61.0,58.7,29.66,North,0,0.0,0.0,92,0.00,,,0.00,WUHU216HW,2013-08-14 08:11:00,
2013-08-14 04:16:00,61.0,58.7,29.65,North,0,0.0,0.0,92,0.00,,,0.00,WUHU216HW,2013-08-14 08:16:00,
2013-08-14 04:21:00,61.0,58.7,29.65,North,0,0.0,0.0,92,0.00,,,0.00,WUHU216HW,2013-08-14 08:21:00,
2013-08-14 04:26:00,61.2,58.9,29.65,North,0,0.0,0.0,92,0.00,,,0.00,WUHU216HW,2013-08-14 08:26:00,
2013-08-14 04:31:00,61.2,58.9,29.65,North,0,0.0,0.0,92,0.00,,,0.00,WUHU216HW,2013-08-14 08:31:00,
2013-08-14 04:36:00,61.6,59.2,29.65,North,0,0.0,0.0,92,0.00,,,0.00,WUHU216HW,2013-08-14 08:36:00,
2013-08-14 04:41:00,61.9,59.6,29.65,North,0,0.0,0.0,92,0.00,,,0.00,WUHU216HW,2013-08-14 08:41:00,
2013-08-14 04:46:00,61.9,59.6,29.65,North,0,0.0,0.0,92,0.00,,,0.00,WUHU216HW,2013-08-14 08:46:00,
2013-08-14 04:51:00,62.1,59.8,29.65,North,0,0.0,0.0,92,0.00,,,0.00,WUHU216HW,2013-08-14 08:51:00,
2013-08-14 04:56:00,62.1,59.8,29.65,North,0,0.0,0.0,92,0.00,,,0.00,WUHU216HW,2013-08-14 08:56:00,
2013-08-14 05:01:00,62.1,59.8,29.64,North,0,0.0,0.0,92,0.00,,,0.00,WUHU216HW,2013-08-14 09:01:00,
2013-08-14 05:06:00,62.3,59.9,29.64,North,0,0.0,0.0,92,0.00,,,0.00,WUHU216HW,2013-08-14 09:06:00,
2013-08-14 05:11:00,62.1,59.8,29.64,North,0,0.0,0.0,92,0.00,,,0.00,WUHU216HW,2013-08-14 09:11:00,
2013-08-14 05:16:00,62.1,59.8,29.64,North,0,0.0,0.0,92,0.00,,,0.00,WUHU216HW,2013-08-14 09:16:00,
2013-08-14 05:21:00,62.3,59.9,29.65,North,0,0.0,0.0,92,0.00,,,0.00,WUHU216HW,2013-08-14 09:21:00,
2013-08-14 05:26:00,63.4,61.4,29.65,North,0,0.0,0.0,93,0.00,,,0.00,WUHU216HW,2013-08-14 09:26:00,
2013-08-14 05:31:00,63.7,61.8,29.65,North,0,0.0,0.0,93,0.00,,,0.00,WUHU216HW,2013-08-14 09:31:00,
2013-08-14 05:36:00,63.5,61.6,29.66,North,0,0.0,0.0,93,0.00,,,0.00,WUHU216HW,2013-08-14 09:36:00,
2013-08-14 05:41:00,63.5,61.2,29.66,North,0,0.0,0.0,92,0.00,,,0.00,WUHU216HW,2013-08-14 09:41:00,
2013-08-14 05:46:00,63.5,61.2,29.66,North,0,0.0,0.0,92,0.00,,,0.00,WUHU216HW,2013-08-14 09:46:00,
2013-08-14 05:51:00,63.5,61.2,29.66,North,0,0.0,0.0,92,0.00,,,0.00,WUHU216HW,2013-08-14 09:51:00,
2013-08-14 05:56:00,63.7,61.4,29.66,North,0,0.0,0.0,92,0.00,,,0.00,WUHU216HW,2013-08-14 09:56:00,
2013-08-14 06:01:00,63.7,61.4,29.66,North,0,0.0,0.0,92,0.00,,,0.00,WUHU216HW,2013-08-14 10:01:00,
2013-08-14 06:06:00,63.7,61.4,29.66,North,0,0.0,0.0,92,0.00,,,0.00,WUHU216HW,2013-08-14 10:06:00,
2013-08-14 06:11:00,63.7,61.4,29.67,North,0,0.0,0.0,92,0.01,,,0.01,WUHU216HW,2013-08-14 10:11:00,
2013-08-14 06:16:00,63.7,61.4,29.67,North,0,0.0,0.0,92,0.01,,,0.01,WUHU216HW,2013-08-14 10:16:00,
2013-08-14 06:21:00,63.7,61.4,29.67,North,0,0.0,0.0,92,0.01,,,0.01,WUHU216HW,2013-08-14 10:21:00,
2013-08-14 06:26:00,63.7,61.4,29.67,North,0,0.0,0.0,92,0.01,,,0.01,WUHU216HW,2013-08-14 10:26:00,
2013-08-14 06:31:00,63.7,61.4,29.67,North,0,0.0,0.0,92,0.01,,,0.01,WUHU216HW,2013-08-14 10:31:00,
2013-08-14 06:36:00,63.5,61.2,29.67,North,0,0.0,0.0,92,0.01,,,0.01,WUHU216HW,2013-08-14 10:36:00,
2013-08-14 06:41:00,63.5,61.2,29.68,North,0,0.0,0.0,92,0.01,,,0.01,WUHU216HW,2013-08-14 10:41:00,
2013-08-14 06:46:00,63.4,61.0,29.67,North,0,0.0,0.0,92,0.01,,,0.01,WUHU216HW,2013-08-14 10:46:00,
2013-08-14 06:51:00,63.4,61.4,29.67,North,0,0.0,0.0,93,0.01,,,0.01,WUHU216HW,2013-08-14 10:51:00,
2013-08-14 06:56:00,63.4,61.4,29.67,North,0,0.0,0.0,93,0.01,,,0.01,WUHU216HW,2013-08-14 10:56:00,
2013-08-14 07:01:00,63.4,61.0,29.68,North,0,0.0,0.0,92,0.01,,,0.01,WUHU216HW,2013-08-14 11:01:00,
2013-08-14 07:06:00,63.4,61.0,29.68,North,0,0.0,0.0,92,0.01,,,0.01,WUHU216HW,2013-08-14 11:06:00,
2013-08-14 07:11:00,63.7,61.8,29.68,North,0,0.0,0.0,93,0.00,,,0.01,WUHU216HW,2013-08-14 11:11:00,
2013-08-14 07:16:00,64.4,62.5,29.68,North,0,0.0,0.0,93,0.00,,,0.01,WUHU216HW,2013-08-14 11:16:00,
2013-08-14 07:21:00,64.8,62.5,29.68,North,0,0.0,0.0,92,0.00,,,0.01,WUHU216HW,2013-08-14 11:21:00,
2013-08-14 07:26:00,65.0,62.7,29.68,North,0,0.0,0.0,92,0.00,,,0.01,WUHU216HW,2013-08-14 11:26:00,
2013-08-14 07:31:00,65.2,62.8,29.68,North,0,0.0,0.0,92,0.00,,,0.01,WUHU216HW,2013-08-14 11:31:00,
2013-08-14 07:36:00,64.8,61.9,29.68,North,0,0.0,0.0,90,0.00,,,0.01,WUHU216HW,2013-08-14 11:36:00,
2013-08-14 07:41:00,64.6,61.8,29.68,North,0,0.0,0.0,90,0.00,,,0.01,WUHU216HW,2013-08-14 11:41:00,
2013-08-14 07:46:00,64.6,61.8,29.68,North,0,0.0,0.0,90,0.00,,,0.01,WUHU216HW,2013-08-14 11:46:00,
2013-08-14 07:51:00,64.6,61.0,29.68,North,0,0.0,0.0,88,0.00,,,0.01,WUHU216HW,2013-08-14 11:51:00,
2013-08-14 07:56:00,64.8,60.8,29.68,North,0,0.0,0.0,87,0.00,,,0.01,WUHU216HW,2013-08-14 11:56:00,
2013-08-14 08:01:00,66.4,61.7,29.69,North,0,0.0,0.0,85,0.00,,,0.01,WUHU216HW,2013-08-14 12:01:00,
2013-08-14 08:06:00,67.7,61.4,29.68,North,0,0.0,0.0,80,0.00,,,0.01,WUHU216HW,2013-08-14 12:06:00,
2013-08-14 08:11:00,68.9,62.2,29.68,North,0,0.0,0.0,79,0.00,,,0.01,WUHU216HW,2013-08-14 12:11:00,
2013-08-14 08:16:00,68.8,60.8,29.68,North,0,0.0,0.0,76,0.00,,,0.01,WUHU216HW,2013-08-14 12:16:00,
2013-08-14 08:21:00,68.4,60.6,29.68,North,0,0.0,0.0,76,0.00,,,0.01,WUHU216HW,2013-08-14 12:21:00,
2013-08-14 08:26:00,68.8,60.8,29.68,North,0,0.0,0.0,76,0.00,,,0.01,WUHU216HW,2013-08-14 12:26:00,
2013-08-14 08:31:00,67.9,60.0,29.68,North,0,0.0,0.0,76,0.00,,,0.01,WUHU216HW,2013-08-14 12:31:00,
2013-08-14 08:36:00,68.4,60.2,29.69,North,0,0.0,0.0,75,0.00,,,0.01,WUHU216HW,2013-08-14 12:36:00,
2013-08-14 08:41:00,68.4,59.8,29.68,North,0,0.0,0.0,74,0.00,,,0.01,WUHU216HW,2013-08-14 12:41:00,
2013-08-14 08:46:00,67.9,59.0,29.68,North,0,0.0,0.0,73,0.00,,,0.01,WUHU216HW,2013-08-14 12:46:00,
2013-08-14 08:51:00,67.3,58.0,29.68,North,0,0.0,0.0,72,0.00,,,0.01,WUHU216HW,2013-08-14 12:51:00,
2013-08-14 08:56:00,67.1,58.2,29.68,North,0,0.0,0.0,73,0.00,,,0.01,WUHU216HW,2013-08-14 12:56:00,
2013-08-14 09:01:00,67.0,57.6,29.68,North,0,0.0,0.0,72,0.00,,,0.01,WUHU216HW,2013-08-14 13:01:00,
2013-08-14 09:06:00,67.1,58.6,29.68,North,0,0.0,0.0,74,0.00,,,0.01,WUHU216HW,2013-08-14 13:06:00,
2013-08-14 09:11:00,67.7,58.8,29.68,North,0,0.0,0.0,73,0.00,,,0.01,WUHU216HW,2013-08-14 13:11:00,
2013-08-14 09:16:00,68.8,59.4,29.67,North,0,0.0,0.0,72,0.00,,,0.01,WUHU216HW,2013-08-14 13:16:00,
2013-08-14 09:21:00,68.9,58.3,29.67,North,0,0.0,0.0,69,0.00,,,0.01,WUHU216HW,2013-08-14 13:21:00,
2013-08-14 09:26:00,69.1,58.1,29.67,North,0,0.0,0.0,68,0.00,,,0.01,WUHU216HW,2013-08-14 13:26:00,
2013-08-14 09:31:00,68.8,57.3,29.67,North,0,0.0,0.0,67,0.00,,,0.01,WUHU216HW,2013-08-14 13:31:00,
2013-08-14 09:36:00,68.0,57.1,29.67,North,0,0.0,0.0,68,0.00,,,0.01,WUHU216HW,2013-08-14 13:36:00,
2013-08-14 09:41:00,68.6,58.1,29.67,North,0,0.0,0.0,69,0.00,,,0.01,WUHU216HW,2013-08-14 13:41:00,
2013-08-14 09:46:00,69.5,58.0,29.67,North,0,0.0,0.0,67,0.00,,,0.01,WUHU216HW,2013-08-14 13:46:00,
2013-08-14 09:51:00,68.9,56.7,29.67,North,0,0.0,0.0,65,0.00,,,0.01,WUHU216HW,2013-08-14 13:51:00,
2013-08-14 09:56:00,68.4,56.2,29.67,North,0,0.0,0.0,65,0.00,,,0.01,WUHU216HW,2013-08-14 13:56:00,
2013-08-14 10:01:00,68.2,56.0,29.67,North,0,0.0,0.0,65,0.00,,,0.01,WUHU216HW,2013-08-14 14:01:00,
2013-08-14 10:06:00,68.2,55.5,29.68,North,0,0.0,0.0,64,0.00,,,0.01,WUHU216HW,2013-08-14 14:06:00,
2013-08-14 10:11:00,68.4,54.9,29.68,North,0,0.0,0.0,62,0.00,,,0.01,WUHU216HW,2013-08-14 14:11:00,
2013-08-14 10:16:00,68.2,54.3,29.68,North,0,0.0,0.0,61,0.00,,,0.01,WUHU216HW,2013-08-14 14:16:00,
2013-08-14 10:21:00,68.0,54.1,29.67,North,0,0.0,0.0,61,0.00,,,0.01,WUHU216HW,2013-08-14 14:21:00,
2013-08-14 10:26:00,68.8,54.8,29.68,North,0,0.0,0.0,61,0.00,,,0.01,WUHU216HW,2013-08-14 14:26:00,
2013-08-14 10:31:00,69.3,54.4,29.67,North,0,0.0,0.0,59,0.00,,,0.01,WUHU216HW,2013-08-14 14:31:00,
2013-08-14 10:36:00,69.5,55.1,29.67,North,0,0.0,0.0,60,0.00,,,0.01,WUHU216HW,2013-08-14 14:36:00,
2013-08-14 10:41:00,69.5,55.5,29.67,North,0,0.0,0.0,61,0.00,,,0.01,WUHU216HW,2013-08-14 14:41:00,
2013-08-14 10:46:00,69.3,54.9,29.67,North,0,0.0,0.0,60,0.00,,,0.01,WUHU216HW,2013-08-14 14:46:00,
2013-08-14 10:51:00,69.3,54.4,29.67,North,0,0.0,0.0,59,0.00,,,0.01,WUHU216HW,2013-08-14 14:51:00,
2013-08-14 10:56:00,69.1,54.7,29.67,North,0,0.0,0.0,60,0.00,,,0.01,WUHU216HW,2013-08-14 14:56:00,
2013-08-14 11:01:00,69.5,54.1,29.67,North,0,0.0,0.0,58,0.00,,,0.01,WUHU216HW,2013-08-14 15:01:00,
2013-08-14 11:06:00,70.2,54.7,29.67,North,0,0.0,0.0,58,0.00,,,0.01,WUHU216HW,2013-08-14 15:06:00,
2013-08-14 11:11:00,71.1,55.5,29.67,North,0,0.0,0.0,58,0.00,,,0.01,WUHU216HW,2013-08-14 15:11:00,
2013-08-14 11:16:00,71.3,55.3,29.68,North,0,0.0,0.0,57,0.00,,,0.01,WUHU216HW,2013-08-14 15:16:00,
2013-08-14 11:21:00,70.6,54.5,29.68,North,0,0.0,0.0,57,0.00,,,0.01,WUHU216HW,2013-08-14 15:21:00,
2013-08-14 11:26:00,70.4,54.5,29.68,North,0,0.0,0.0,57,0.00,,,0.01,WUHU216HW,2013-08-14 15:26:00,
2013-08-14 11:31:00,70.9,54.4,29.68,North,0,0.0,0.0,56,0.00,,,0.01,WUHU216HW,2013-08-14 15:31:00,
2013-08-14 11:36:00,71.6,55.5,29.68,North,0,0.0,0.0,57,0.00,,,0.01,WUHU216HW,2013-08-14 15:36:00,
2013-08-14 11:41:00,71.6,55.1,29.67,North,0,0.0,0.0,56,0.00,,,0.01,WUHU216HW,2013-08-14 15:41:00,
2013-08-14 11:46:00,71.5,54.9,29.68,North,0,0.0,0.0,56,0.00,,,0.01,WUHU216HW,2013-08-14 15:46:00,
2013-08-14 11:51:00,71.3,55.7,29.68,North,0,0.0,0.0,58,0.00,,,0.01,WUHU216HW,2013-08-14 15:51:00,
2013-08-14 11:56:00,71.5,53.4,29.68,North,0,0.0,0.0,53,0.00,,,0.01,WUHU216HW,2013-08-14 15:56:00,
2013-08-14 12:01:00,71.1,54.1,29.68,North,0,0.0,0.0,55,0.00,,,0.01,WUHU216HW,2013-08-14 16:01:00,
2013-08-14 12:06:00,71.6,54.5,29.68,North,0,0.0,0.0,55,0.00,,,0.01,WUHU216HW,2013-08-14 16:06:00,
2013-08-14 12:11:00,71.8,54.2,29.68,North,0,0.0,0.0,54,0.00,,,0.01,WUHU216HW,2013-08-14 16:11:00,
2013-08-14 12:16:00,71.6,53.6,29.68,North,0,0.0,0.0,53,0.00,,,0.01,WUHU216HW,2013-08-14 16:16:00,
2013-08-14 12:21:00,71.5,54.4,29.69,North,0,0.0,0.0,55,0.00,,,0.01,WUHU216HW,2013-08-14 16:21:00,
2013-08-14 12:26:00,72.9,55.7,29.68,North,0,0.0,0.0,55,0.00,,,0.01,WUHU216HW,2013-08-14 16:26:00,
2013-08-14 12:31:00,73.8,55.0,29.68,North,0,0.0,0.0,52,0.00,,,0.01,WUHU216HW,2013-08-14 16:31:00,
2013-08-14 12:36:00,72.5,53.8,29.68,North,0,0.0,0.0,52,0.00,,,0.01,WUHU216HW,2013-08-14 16:36:00,
2013-08-14 12:41:00,72.4,53.6,29.68,North,0,0.0,0.0,52,0.00,,,0.01,WUHU216HW,2013-08-14 16:41:00,
2013-08-14 12:46:00,72.2,53.6,29.68,North,0,0.0,0.0,52,0.00,,,0.01,WUHU216HW,2013-08-14 16:46:00,
2013-08-14 12:51:00,72.0,53.8,29.68,North,0,0.0,0.0,53,0.00,,,0.01,WUHU216HW,2013-08-14 16:51:00,
2013-08-14 12:56:00,72.7,54.6,29.68,North,0,0.0,0.0,53,0.00,,,0.01,WUHU216HW,2013-08-14 16:56:00,
2013-08-14 13:02:00,74.0,55.2,29.68,North,0,0.0,0.0,52,0.00,,,0.01,WUHU216HW,2013-08-14 17:02:00,
2013-08-14 13:07:00,74.5,55.3,29.68,North,0,0.0,0.0,51,0.00,,,0.01,WUHU216HW,2013-08-14 17:07:00,
2013-08-14 13:12:00,74.9,54.5,29.68,North,0,0.0,0.0,49,0.00,,,0.01,WUHU216HW,2013-08-14 17:12:00,
2013-08-14 13:17:00,75.2,55.4,29.69,North,0,0.0,0.0,50,0.00,,,0.01,WUHU216HW,2013-08-14 17:17:00,
2013-08-14 13:22:00,75.2,54.8,29.69,North,0,0.0,0.0,49,0.00,,,0.01,WUHU216HW,2013-08-14 17:22:00,
2013-08-14 13:27:00,75.1,54.0,29.69,North,0,0.0,0.0,48,0.00,,,0.01,WUHU216HW,2013-08-14 17:27:00,
2013-08-14 13:32:00,75.6,54.5,29.69,North,0,0.0,0.0,48,0.00,,,0.01,WUHU216HW,2013-08-14 17:32:00,
2013-08-14 13:37:00,75.6,54.5,29.70,North,0,0.0,0.0,48,0.00,,,0.01,WUHU216HW,2013-08-14 17:37:00,
2013-08-14 13:42:00,75.4,54.4,29.70,North,0,0.0,0.0,48,0.00,,,0.01,WUHU216HW,2013-08-14 17:42:00,
2013-08-14 13:47:00,75.2,55.4,29.70,North,0,0.0,0.0,50,0.00,,,0.01,WUHU216HW,2013-08-14 17:47:00,
2013-08-14 13:52:00,75.6,55.2,29.70,North,0,0.0,0.0,49,0.00,,,0.01,WUHU216HW,2013-08-14 17:52:00,
2013-08-14 13:57:00,76.3,55.8,29.70,North,0,0.0,0.0,49,0.00,,,0.01,WUHU216HW,2013-08-14 17:57:00,
2013-08-14 14:02:00,77.6,57.5,29.69,North,0,0.0,0.0,50,0.00,,,0.01,WUHU216HW,2013-08-14 18:02:00,
2013-08-14 14:08:00,77.0,55.3,29.69,North,0,0.0,0.0,47,0.00,,,0.01,WUHU216HW,2013-08-14 18:08:00,
2013-08-14 14:13:00,75.2,54.8,29.69,North,0,0.0,0.0,49,0.00,,,0.01,WUHU216HW,2013-08-14 18:13:00,
2013-08-14 14:18:00,75.1,54.0,29.69,North,0,0.0,0.0,48,0.00,,,0.01,WUHU216HW,2013-08-14 18:18:00,
2013-08-14 14:23:00,76.0,54.9,29.70,North,0,0.0,0.0,48,0.00,,,0.01,WUHU216HW,2013-08-14 18:23:00,
2013-08-14 14:28:00,76.9,53.8,29.70,North,0,0.0,0.0,45,0.00,,,0.01,WUHU216HW,2013-08-14 18:28:00,
2013-08-14 14:33:00,76.9,53.8,29.69,North,0,0.0,0.0,45,0.00,,,0.01,WUHU216HW,2013-08-14 18:33:00,
2013-08-14 14:38:00,76.7,54.3,29.70,North,0,0.0,0.0,46,0.00,,,0.01,WUHU216HW,2013-08-14 18:38:00,
2013-08-14 14:43:00,76.3,54.0,29.70,North,0,0.0,0.0,46,0.00,,,0.01,WUHU216HW,2013-08-14 18:43:00,
2013-08-14 14:49:00,76.7,54.9,29.70,North,0,0.0,0.0,47,0.00,,,0.01,WUHU216HW,2013-08-14 18:49:00,
2013-08-14 14:54:00,77.4,54.4,29.69,North,0,0.0,0.0,45,0.00,,,0.01,WUHU216HW,2013-08-14 18:54:00,
2013-08-14 14:59:00,77.0,54.6,29.69,North,0,0.0,0.0,46,0.00,,,0.01,WUHU216HW,2013-08-14 18:59:00,
2013-08-14 15:04:00,77.0,55.3,29.69,North,0,0.0,0.0,47,0.00,,,0.01,WUHU216HW,2013-08-14 19:04:00,
2013-08-14 15:11:00,77.2,54.8,29.69,North,0,0.0,0.0,46,0.00,,,0.01,WUHU216HW,2013-08-14 19:11:00,
2013-08-14 15:16:00,78.1,53.1,29.69,North,0,0.0,0.0,42,0.00,,,0.01,WUHU216HW,2013-08-14 19:16:00,
2013-08-14 15:21:00,77.9,53.0,29.70,North,0,0.0,0.0,42,0.00,,,0.01,WUHU216HW,2013-08-14 19:21:00,
2013-08-14 15:26:00,77.2,54.2,29.69,North,0,0.0,0.0,45,0.00,,,0.01,WUHU216HW,2013-08-14 19:26:00,
2013-08-14 15:32:00,77.9,54.8,29.70,North,0,0.0,0.0,45,0.00,,,0.01,WUHU216HW,2013-08-14 19:32:00,
2013-08-14 15:37:00,78.3,54.6,29.70,North,0,0.0,0.0,44,0.00,,,0.01,WUHU216HW,2013-08-14 19:37:00,
2013-08-14 15:42:00,77.0,52.7,29.70,North,0,0.0,0.0,43,0.00,,,0.01,WUHU216HW,2013-08-14 19:42:00,
2013-08-14 15:47:00,77.0,54.0,29.70,North,0,0.0,0.0,45,0.00,,,0.01,WUHU216HW,2013-08-14 19:47:00,
2013-08-14 15:52:00,76.9,53.8,29.70,North,0,0.0,0.0,45,0.00,,,0.01,WUHU216HW,2013-08-14 19:52:00,
2013-08-14 15:57:00,77.4,54.4,29.70,North,0,0.0,0.0,45,0.00,,,0.01,WUHU216HW,2013-08-14 19:57:00,
2013-08-14 16:02:00,76.7,53.6,29.70,North,0,0.0,0.0,45,0.00,,,0.01,WUHU216HW,2013-08-14 20:02:00,
2013-08-14 16:07:00,76.1,53.8,29.71,North,0,0.0,0.0,46,0.00,,,0.01,WUHU216HW,2013-08-14 20:07:00,
2013-08-14 16:12:00,76.3,52.7,29.71,North,0,0.0,0.0,44,0.00,,,0.01,WUHU216HW,2013-08-14 20:12:00,
2013-08-14 16:17:00,76.0,53.6,29.71,North,0,0.0,0.0,46,0.00,,,0.01,WUHU216HW,2013-08-14 20:17:00,
2013-08-14 16:22:00,75.2,53.0,29.72,North,0,0.0,0.0,46,0.00,,,0.01,WUHU216HW,2013-08-14 20:22:00,
2013-08-14 16:27:00,76.0,54.9,29.71,North,0,0.0,0.0,48,0.00,,,0.01,WUHU216HW,2013-08-14 20:27:00,
2013-08-14 16:33:00,76.9,53.8,29.72,North,0,0.0,0.0,45,0.00,,,0.01,WUHU216HW,2013-08-14 20:33:00,
2013-08-14 16:38:00,77.4,53.7,29.72,North,0,0.0,0.0,44,0.00,,,0.01,WUHU216HW,2013-08-14 20:38:00,
2013-08-14 16:43:00,76.0,53.0,29.72,North,0,0.0,0.0,45,0.00,,,0.01,WUHU216HW,2013-08-14 20:43:00,
2013-08-14 16:48:00,75.2,53.7,29.72,North,0,0.0,0.0,47,0.00,,,0.01,WUHU216HW,2013-08-14 20:48:00,
2013-08-14 16:53:00,74.9,52.7,29.72,North,0,0.0,0.0,46,0.00,,,0.01,WUHU216HW,2013-08-14 20:53:00,
2013-08-14 16:58:00,74.9,53.3,29.73,North,0,0.0,0.0,47,0.00,,,0.01,WUHU216HW,2013-08-14 20:58:00,
2013-08-14 17:03:00,75.2,53.0,29.73,North,0,0.0,0.0,46,0.00,,,0.01,WUHU216HW,2013-08-14 21:03:00,
2013-08-14 17:08:00,74.7,53.1,29.73,North,0,0.0,0.0,47,0.00,,,0.01,WUHU216HW,2013-08-14 21:08:00,
2013-08-14 17:13:00,74.5,53.6,29.73,North,0,0.0,0.0,48,0.00,,,0.01,WUHU216HW,2013-08-14 21:13:00,
2013-08-14 17:18:00,74.5,54.1,29.73,North,0,0.0,0.0,49,0.00,,,0.01,WUHU216HW,2013-08-14 21:18:00,
2013-08-14 17:23:00,75.2,53.7,29.74,North,0,0.0,0.0,47,0.00,,,0.01,WUHU216HW,2013-08-14 21:23:00,
2013-08-14 17:28:00,75.1,53.5,29.74,North,0,0.0,0.0,47,0.00,,,0.01,WUHU216HW,2013-08-14 21:28:00,
2013-08-14 17:33:00,74.5,53.6,29.74,North,0,0.0,0.0,48,0.00,,,0.01,WUHU216HW,2013-08-14 21:33:00,
2013-08-14 17:38:00,74.2,53.7,29.74,North,0,0.0,0.0,49,0.00,,,0.01,WUHU216HW,2013-08-14 21:38:00,
2013-08-14 17:43:00,74.2,53.7,29.75,North,0,0.0,0.0,49,0.00,,,0.01,WUHU216HW,2013-08-14 21:43:00,
2013-08-14 17:49:00,75.2,54.8,29.74,North,0,0.0,0.0,49,0.00,,,0.01,WUHU216HW,2013-08-14 21:49:00,
2013-08-14 17:54:00,74.9,53.8,29.75,North,0,0.0,0.0,48,0.00,,,0.01,WUHU216HW,2013-08-14 21:54:00,
2013-08-14 17:59:00,74.0,53.6,29.75,North,0,0.0,0.0,49,0.00,,,0.01,WUHU216HW,2013-08-14 21:59:00,
2013-08-14 18:04:00,73.4,52.5,29.75,North,0,0.0,0.0,48,0.00,,,0.01,WUHU216HW,2013-08-14 22:04:00,
2013-08-14 18:09:00,73.1,52.8,29.75,North,0,0.0,0.0,49,0.00,,,0.01,WUHU216HW,2013-08-14 22:09:00,
2013-08-14 18:14:00,73.1,53.3,29.76,North,0,0.0,0.0,50,0.00,,,0.01,WUHU216HW,2013-08-14 22:14:00,
2013-08-14 18:19:00,72.9,53.2,29.76,North,0,0.0,0.0,50,0.00,,,0.01,WUHU216HW,2013-08-14 22:19:00,
2013-08-14 18:24:00,72.7,53.0,29.76,North,0,0.0,0.0,50,0.00,,,0.01,WUHU216HW,2013-08-14 22:24:00,
2013-08-14 18:29:00,72.9,53.6,29.77,North,0,0.0,0.0,51,0.00,,,0.01,WUHU216HW,2013-08-14 22:29:00,
2013-08-14 18:34:00,72.7,52.4,29.77,North,0,0.0,0.0,49,0.00,,,0.01,WUHU216HW,2013-08-14 22:34:00,
2013-08-14 18:39:00,73.8,53.4,29.78,North,0,0.0,0.0,49,0.00,,,0.01,WUHU216HW,2013-08-14 22:39:00,
2013-08-14 18:44:00,74.2,53.2,29.78,North,0,0.0,0.0,48,0.00,,,0.01,WUHU216HW,2013-08-14 22:44:00,
2013-08-14 18:49:00,74.2,53.2,29.78,North,0,0.0,0.0,48,0.00,,,0.01,WUHU216HW,2013-08-14 22:49:00,
2013-08-14 18:54:00,73.3,52.3,29.79,North,0,0.0,0.0,48,0.00,,,0.01,WUHU216HW,2013-08-14 22:54:00,
2013-08-14 18:59:00,72.7,53.0,29.79,North,0,0.0,0.0,50,0.00,,,0.01,WUHU216HW,2013-08-14 22:59:00,
2013-08-14 19:04:00,72.0,52.4,29.79,North,0,0.0,0.0,50,0.00,,,0.01,WUHU216HW,2013-08-14 23:04:00,
2013-08-14 19:09:00,71.3,52.2,29.80,North,0,0.0,0.0,51,0.00,,,0.01,WUHU216HW,2013-08-14 23:09:00,
2013-08-14 19:15:00,70.7,52.2,29.81,North,0,0.0,0.0,52,0.00,,,0.01,WUHU216HW,2013-08-14 23:15:00,
2013-08-14 19:20:00,70.2,52.2,29.81,North,0,0.0,0.0,53,0.00,,,0.01,WUHU216HW,2013-08-14 23:20:00,
2013-08-14 19:25:00,70.0,52.1,29.81,North,0,0.0,0.0,53,0.00,,,0.01,WUHU216HW,2013-08-14 23:25:00,
2013-08-14 19:30:00,69.7,52.3,29.81,North,0,0.0,0.0,54,0.00,,,0.01,WUHU216HW,2013-08-14 23:30:00,
2013-08-14 19:35:00,69.3,51.9,29.81,North,0,0.0,0.0,54,0.00,,,0.01,WUHU216HW,2013-08-14 23:35:00,
2013-08-14 19:40:00,68.9,52.0,29.81,North,0,0.0,0.0,55,0.00,,,0.01,WUHU216HW,2013-08-14 23:40:00,
2013-08-14 19:45:00,68.6,52.2,29.81,North,0,0.0,0.0,56,0.00,,,0.01,WUHU216HW,2013-08-14 23:45:00,
2013-08-14 19:50:00,68.9,53.0,29.81,North,0,0.0,0.0,57,0.00,,,0.01,WUHU216HW,2013-08-14 23:50:00,
2013-08-14 19:55:00,69.5,53.1,29.82,North,0,0.0,0.0,56,0.00,,,0.01,WUHU216HW,2013-08-14 23:55:00,
2013-08-14 20:00:00,69.8,52.9,29.82,North,0,0.0,0.0,55,0.00,,,0.01,WUHU216HW,2013-08-15 00:00:00,
2013-08-14 20:05:00,69.1,51.8,29.83,North,0,0.0,0.0,54,0.00,,,0.01,WUHU216HW,2013-08-15 00:05:00,
2013-08-14 20:10:00,68.2,50.9,29.83,North,0,0.0,0.0,54,0.00,,,0.01,WUHU216HW,2013-08-15 00:10:00,
2013-08-14 20:15:00,67.7,50.9,29.84,North,0,0.0,0.0,55,0.00,,,0.01,WUHU216HW,2013-08-15 00:15:00,
2013-08-14 20:20:00,67.5,50.8,29.84,North,0,0.0,0.0,55,0.00,,,0.01,WUHU216HW,2013-08-15 00:20:00,
2013-08-14 20:25:00,67.3,50.6,29.84,North,0,0.0,0.0,55,0.00,,,0.01,WUHU216HW,2013-08-15 00:25:00,
2013-08-14 20:30:00,67.0,50.8,29.85,North,0,0.0,0.0,56,0.00,,,0.01,WUHU216HW,2013-08-15 00:30:00,
2013-08-14 20:35:00,66.8,50.6,29.86,North,0,0.0,0.0,56,0.00,,,0.01,WUHU216HW,2013-08-15 00:35:00,
2013-08-14 20:40:00,66.6,50.9,29.86,North,0,0.0,0.0,57,0.00,,,0.01,WUHU216HW,2013-08-15 00:40:00,
2013-08-14 20:45:00,66.4,50.8,29.87,North,0,0.0,0.0,57,0.00,,,0.01,WUHU216HW,2013-08-15 00:45:00,
2013-08-14 20:50:00,66.2,51.0,29.87,North,0,0.0,0.0,58,0.00,,,0.01,WUHU216HW,2013-08-15 00:50:00,
2013-08-14 20:55:00,65.9,50.7,29.87,North,0,0.0,0.0,58,0.00,,,0.01,WUHU216HW,2013-08-15 00:55:00,
2013-08-14 21:00:00,65.7,51.0,29.87,North,0,0.0,0.0,59,0.00,,,0.01,WUHU216HW,2013-08-15 01:00:00,
2013-08-14 21:05:00,65.5,51.3,29.87,North,0,0.0,0.0,60,0.00,,,0.01,WUHU216HW,2013-08-15 01:05:00,
2013-08-14 21:10:00,65.2,50.9,29.88,North,0,0.0,0.0,60,0.00,,,0.01,WUHU216HW,2013-08-15 01:10:00,
2013-08-14 21:15:00,65.0,51.2,29.89,North,0,0.0,0.0,61,0.00,,,0.01,WUHU216HW,2013-08-15 01:15:00,
2013-08-14 21:20:00,65.0,51.6,29.89,North,0,0.0,0.0,62,0.00,,,0.01,WUHU216HW,2013-08-15 01:20:00,
2013-08-14 21:25:00,64.8,51.5,29.89,North,0,0.0,0.0,62,0.00,,,0.01,WUHU216HW,2013-08-15 01:25:00,
2013-08-14 21:30:00,64.8,51.5,29.89,North,0,0.0,0.0,62,0.00,,,0.01,WUHU216HW,2013-08-15 01:30:00,
2013-08-14 21:35:00,65.3,51.9,29.90,North,0,0.0,0.0,62,0.00,,,0.01,WUHU216HW,2013-08-15 01:35:00,
2013-08-14 21:40:00,66.8,52.9,29.89,North,0,0.0,0.0,61,0.00,,,0.01,WUHU216HW,2013-08-15 01:40:00,
2013-08-14 21:45:00,68.0,52.7,29.90,North,0,0.0,0.0,58,0.00,,,0.01,WUHU216HW,2013-08-15 01:45:00,
2013-08-14 21:50:00,68.6,52.8,29.90,North,0,0.0,0.0,57,0.00,,,0.01,WUHU216HW,2013-08-15 01:50:00,
2013-08-14 21:55:00,67.9,52.0,29.90,North,0,0.0,0.0,57,0.00,,,0.01,WUHU216HW,2013-08-15 01:55:00,
2013-08-14 22:00:00,67.0,51.7,29.90,North,0,0.0,0.0,58,0.00,,,0.01,WUHU216HW,2013-08-15 02:00:00,
2013-08-14 22:05:00,66.4,51.7,29.89,North,0,0.0,0.0,59,0.00,,,0.01,WUHU216HW,2013-08-15 02:05:00,
2013-08-14 22:10:00,66.2,51.6,29.90,North,0,0.0,0.0,59,0.00,,,0.01,WUHU216HW,2013-08-15 02:10:00,
2013-08-14 22:15:00,66.2,51.6,29.90,North,0,0.0,0.0,59,0.00,,,0.01,WUHU216HW,2013-08-15 02:15:00,
2013-08-14 22:20:00,65.0,50.8,29.90,North,0,0.0,0.0,60,0.00,,,0.01,WUHU216HW,2013-08-15 02:20:00,
2013-08-14 22:25:00,65.3,51.6,29.90,North,0,0.0,0.0,61,0.00,,,0.01,WUHU216HW,2013-08-15 02:25:00,
2013-08-14 22:30:00,65.9,52.1,29.91,North,0,0.0,0.0,61,0.00,,,0.01,WUHU216HW,2013-08-15 02:30:00,
2013-08-14 22:35:00,66.4,52.2,29.91,North,0,0.0,0.0,60,0.00,,,0.01,WUHU216HW,2013-08-15 02:35:00,
2013-08-14 22:40:00,66.4,51.7,29.91,North,0,0.0,0.0,59,0.00,,,0.01,WUHU216HW,2013-08-15 02:40:00,
2013-08-14 22:45:00,65.7,51.0,29.91,North,0,0.0,0.0,59,0.00,,,0.01,WUHU216HW,2013-08-15 02:45:00,
2013-08-14 22:50:00,64.4,50.7,29.90,North,0,0.0,0.0,61,0.00,,,0.01,WUHU216HW,2013-08-15 02:50:00,
2013-08-14 22:55:00,64.8,51.5,29.91,North,0,0.0,0.0,62,0.00,,,0.01,WUHU216HW,2013-08-15 02:55:00,
2013-08-14 23:00:00,65.2,51.8,29.91,North,0,0.0,0.0,62,0.00,,,0.01,WUHU216HW,2013-08-15 03:00:00,
2013-08-14 23:05:00,65.2,51.4,29.91,North,0,0.0,0.0,61,0.00,,,0.01,WUHU216HW,2013-08-15 03:05:00,
2013-08-14 23:10:00,64.4,50.7,29.91,North,0,0.0,0.0,61,0.00,,,0.01,WUHU216HW,2013-08-15 03:10:00,
2013-08-14 23:15:00,64.1,51.2,29.91,North,0,0.0,0.0,63,0.00,,,0.01,WUHU216HW,2013-08-15 03:15:00,
2013-08-14 23:20:00,63.5,50.7,29.90,North,0,0.0,0.0,63,0.00,,,0.01,WUHU216HW,2013-08-15 03:20:00,
2013-08-14 23:25:00,62.8,50.4,29.91,North,0,0.0,0.0,64,0.00,,,0.01,WUHU216HW,2013-08-15 03:25:00,
2013-08-14 23:30:00,62.5,50.1,29.92,North,0,0.0,0.0,64,0.00,,,0.01,WUHU216HW,2013-08-15 03:30:00,
2013-08-14 23:35:00,62.3,50.3,29.92,North,0,0.0,0.0,65,0.00,,,0.01,WUHU216HW,2013-08-15 03:35:00,
2013-08-14 23:40:00,61.9,50.1,29.93,North,0,0.0,0.0,65,0.00,,,0.01,WUHU216HW,2013-08-15 03:40:00,
2013-08-14 23:45:00,61.7,50.3,29.92,North,0,0.0,0.0,66,0.00,,,0.01,WUHU216HW,2013-08-15 03:45:00,
2013-08-14 23:50:00,61.6,50.1,29.93,North,0,0.0,0.0,66,0.00,,,0.01,WUHU216HW,2013-08-15 03:50:00,
2013-08-14 23:55:00,61.4,50.0,29.93,North,0,0.0,0.0,66,0.00,,,0.01,WUHU216HW,2013-08-15 03:55:00,